Terminal Aerodrome Forecast
Issued by NWS

Home | Current Version | Previous Version | Text Only | Print | Product List | Glossary On
Versions: 1 2 3 4 5 6 7 8 9 10 11 12 13 14 15 16 17 18 19 20 21 22 23 24 25 26 27
868
FTUS43 KDLH 260537
TAFHYR
TAF
KHYR 260537Z 2606/2706 VRB03KT P6SM VCSH OVC012
     FM260900 05005KT 5SM BR VCSH BKN007 OVC013
      TEMPO 2610/2613 4SM -FZRA BR
     FM261700 04006KT 6SM BR VCSH OVC009
     FM270300 02003KT 5SM BR OVC007=

USA.gov is the U.S. government's official web portal to all federal, state and local government web resources and services.